Time;durP1;ratioP1;P1;durP2;ratioP2;P2;SDS_P1;SDS_P2;PMS_P1;PMS_P2;Temp;Humidity;BMP_temperature;BMP_pressure;BME280_temperature;BME280_humidity;BME280_pressure;Samples;Min_cycle;Max_cycle;Signal;HPM_P1;HPM_P2
2023/06/29 00:02:12;;;;;;;0.55;0.55;;;19.10;99.90;;;;;;5122384;27;20125;-68
2023/06/29 00:04:37;;;;;;;1.77;0.80;;;19.20;99.90;;;;;;5140621;27;20031;-68
2023/06/29 00:07:03;;;;;;;1.95;1.30;;;19.20;99.90;;;;;;5140088;27;20055;-68
2023/06/29 00:09:29;;;;;;;0.28;0.28;;;19.20;99.90;;;;;;5133436;27;20059;-68
2023/06/29 00:11:55;;;;;;;0.52;0.50;;;19.10;99.90;;;;;;5131755;27;20092;-68
2023/06/29 00:14:20;;;;;;;1.45;1.13;;;19.20;99.90;;;;;;5139069;27;20047;-68
2023/06/29 00:16:50;;;;;;;0.98;0.47;;;19.10;99.90;;;;;;5140704;27;20043;-68
2023/06/29 00:19:17;;;;;;;0.10;0.10;;;19.20;99.90;;;;;;5135181;27;20126;-68
2023/06/29 00:21:46;;;;;;;2.80;0.65;;;19.20;99.90;;;;;;5139706;27;20517;-68
2023/06/29 00:24:12;;;;;;;0.75;0.68;;;19.20;99.90;;;;;;5139055;27;20469;-68
2023/06/29 00:26:38;;;;;;;0.30;0.30;;;19.20;99.90;;;;;;5137924;27;20071;-68
2023/06/29 00:29:04;;;;;;;0.70;0.70;;;19.20;99.90;;;;;;5137849;27;20046;-68
2023/06/29 00:31:30;;;;;;;0.70;0.50;;;19.20;99.90;;;;;;5139624;27;20099;-68
2023/06/29 00:33:55;;;;;;;0.10;0.10;;;19.20;99.90;;;;;;5141761;27;20039;-68
2023/06/29 00:36:21;;;;;;;1.75;1.35;;;19.20;99.90;;;;;;5142232;27;20533;-68
2023/06/29 00:38:46;;;;;;;0.20;0.20;;;19.20;99.90;;;;;;5141242;27;20042;-68
2023/06/29 00:41:12;;;;;;;1.25;1.10;;;19.20;99.90;;;;;;5145732;27;20047;-68
2023/06/29 00:43:38;;;;;;;0.30;0.15;;;19.20;99.90;;;;;;5141485;27;20070;-68
2023/06/29 00:46:07;;;;;;;0.77;0.77;;;19.20;99.90;;;;;;5131251;27;20532;-68
2023/06/29 00:48:38;;;;;;;0.55;0.55;;;19.20;99.90;;;;;;5136185;27;20367;-68
2023/06/29 00:51:04;;;;;;;11.52;1.90;;;19.20;99.90;;;;;;5142857;27;20039;-68
2023/06/29 00:53:31;;;;;;;0.40;0.40;;;19.20;99.90;;;;;;5141798;27;20357;-68
2023/06/29 00:55:58;;;;;;;2.38;1.98;;;19.10;99.90;;;;;;5144730;27;20035;-68
2023/06/29 00:58:24;;;;;;;1.38;0.70;;;19.20;99.90;;;;;;5148875;27;20118;-68
2023/06/29 01:00:50;;;;;;;1.13;0.45;;;19.10;99.90;;;;;;5148761;27;20046;-68
2023/06/29 01:03:16;;;;;;;7.32;2.50;;;19.20;99.90;;;;;;5136059;27;20050;-68
2023/06/29 01:05:44;;;;;;;1.65;0.98;;;19.10;99.90;;;;;;5145036;27;20043;-68
2023/06/29 01:08:21;;;;;;;0.03;0.03;;;19.10;99.90;;;;;;5144939;27;20043;-68
2023/06/29 01:10:48;;;;;;;0.77;0.77;;;19.20;99.90;;;;;;5136878;27;20047;-68
2023/06/29 01:13:17;;;;;;;0.70;0.68;;;19.20;99.90;;;;;;5125752;27;20050;-68
2023/06/29 01:15:44;;;;;;;8.07;1.52;;;19.20;99.90;;;;;;5146038;27;20058;-68
2023/06/29 01:18:12;;;;;;;1.13;0.77;;;19.20;99.90;;;;;;5142847;27;20492;-68
2023/06/29 01:20:39;;;;;;;0.10;0.10;;;19.20;99.90;;;;;;5144649;27;20047;-68
2023/06/29 01:23:10;;;;;;;0.60;0.60;;;19.20;99.90;;;;;;5135234;27;20042;-68
2023/06/29 01:25:36;;;;;;;0.82;0.68;;;19.20;99.90;;;;;;5147185;27;20114;-68
2023/06/29 01:28:07;;;;;;;2.05;0.90;;;19.10;99.90;;;;;;5119883;27;20082;-68
2023/06/29 01:30:32;;;;;;;1.75;1.27;;;19.20;99.90;;;;;;5142607;27;20379;-68
2023/06/29 01:32:58;;;;;;;0.00;0.00;;;19.20;99.90;;;;;;5141510;27;20054;-68
2023/06/29 01:35:24;;;;;;;0.03;0.03;;;19.20;99.90;;;;;;5142407;27;20174;-68
2023/06/29 01:37:53;;;;;;;1.15;0.68;;;19.20;99.90;;;;;;5136364;27;20031;-68
2023/06/29 01:40:23;;;;;;;0.45;0.45;;;19.20;99.90;;;;;;5141604;27;20043;-68
2023/06/29 01:42:49;;;;;;;0.47;0.47;;;19.20;99.90;;;;;;5134913;27;20043;-68
2023/06/29 01:45:19;;;;;;;0.80;0.68;;;19.20;99.90;;;;;;5146787;27;20162;-68
2023/06/29 01:47:44;;;;;;;0.38;0.38;;;19.20;99.90;;;;;;5141169;27;20084;-68
2023/06/29 01:50:11;;;;;;;2.50;0.77;;;19.20;99.90;;;;;;5142879;27;20071;-68
2023/06/29 01:52:37;;;;;;;0.15;0.15;;;19.30;99.90;;;;;;5141522;27;20039;-68
2023/06/29 01:55:03;;;;;;;2.47;2.22;;;19.30;99.90;;;;;;5139639;27;20091;-68
2023/06/29 01:57:29;;;;;;;0.32;0.32;;;19.20;99.90;;;;;;5142566;27;20043;-68
2023/06/29 01:59:54;;;;;;;0.43;0.43;;;19.20;99.90;;;;;;5142511;27;20035;-68
2023/06/29 02:02:20;;;;;;;0.05;0.05;;;19.30;99.90;;;;;;5141685;27;20062;-68
2023/06/29 02:04:46;;;;;;;1.50;0.77;;;19.20;99.90;;;;;;5143131;27;20043;-68
2023/06/29 02:07:11;;;;;;;1.73;1.38;;;19.20;99.90;;;;;;5140937;27;20402;-68
2023/06/29 02:09:37;;;;;;;1.00;0.68;;;19.20;99.90;;;;;;5144734;27;20078;-68
2023/06/29 02:12:03;;;;;;;2.42;2.08;;;19.20;99.90;;;;;;5137898;27;20069;-68
2023/06/29 02:14:29;;;;;;;0.47;0.47;;;19.20;99.90;;;;;;5141138;27;20066;-68
2023/06/29 02:16:54;;;;;;;0.17;0.17;;;19.20;99.90;;;;;;5141731;27;20039;-68
2023/06/29 02:19:20;;;;;;;1.17;1.08;;;19.20;99.90;;;;;;5137103;27;20067;-68
2023/06/29 02:21:45;;;;;;;3.00;0.98;;;19.20;99.90;;;;;;5141260;27;20121;-67
2023/06/29 02:24:11;;;;;;;0.95;0.95;;;19.30;99.90;;;;;;5146184;27;20118;-68
2023/06/29 02:26:37;;;;;;;20.42;1.75;;;19.20;99.90;;;;;;5140119;27;20043;-68
2023/06/29 02:29:02;;;;;;;3.95;0.57;;;19.20;99.90;;;;;;5142341;27;20042;-68
2023/06/29 02:31:28;;;;;;;2.08;1.27;;;19.30;99.90;;;;;;5142417;27;20042;-68
2023/06/29 02:33:54;;;;;;;0.50;0.30;;;19.20;99.90;;;;;;5136001;27;20482;-68
2023/06/29 02:36:21;;;;;;;0.30;0.30;;;19.20;99.90;;;;;;5127799;27;20035;-68
2023/06/29 02:38:47;;;;;;;0.30;0.30;;;19.20;99.90;;;;;;5137708;27;20043;-68
2023/06/29 02:41:13;;;;;;;0.63;0.63;;;19.20;99.90;;;;;;5144686;27;20085;-68
2023/06/29 02:43:38;;;;;;;0.68;0.65;;;19.20;99.90;;;;;;5136625;27;20074;-68
2023/06/29 02:46:04;;;;;;;0.00;0.00;;;19.20;99.90;;;;;;5134209;27;20043;-68
2023/06/29 02:48:30;;;;;;;0.88;0.77;;;19.20;99.90;;;;;;5142906;27;20049;-68
2023/06/29 02:50:56;;;;;;;0.10;0.10;;;19.30;99.90;;;;;;5139759;27;20509;-68
2023/06/29 02:53:21;;;;;;;0.55;0.47;;;19.20;99.90;;;;;;5140992;27;20043;-68
2023/06/29 02:55:47;;;;;;;0.20;0.20;;;19.20;99.90;;;;;;5144219;27;20043;-68
2023/06/29 02:58:12;;;;;;;0.00;0.00;;;19.30;99.90;;;;;;5139883;27;20047;-68
2023/06/29 03:00:38;;;;;;;0.50;0.50;;;19.20;99.90;;;;;;5142424;27;20371;-68
2023/06/29 03:03:03;;;;;;;0.50;0.50;;;19.20;99.90;;;;;;5143252;27;20041;-68
2023/06/29 03:05:29;;;;;;;2.67;1.55;;;19.20;99.90;;;;;;5143737;27;20541;-68
2023/06/29 03:07:55;;;;;;;0.55;0.55;;;19.20;99.90;;;;;;5140913;27;20051;-68
2023/06/29 03:10:20;;;;;;;1.30;1.25;;;19.20;99.90;;;;;;5145226;27;20073;-68
2023/06/29 03:12:46;;;;;;;0.20;0.20;;;19.20;99.90;;;;;;5126160;27;20043;-68
2023/06/29 03:15:11;;;;;;;0.73;0.60;;;19.20;99.90;;;;;;5140207;27;20183;-68
2023/06/29 03:17:37;;;;;;;0.20;0.20;;;19.20;99.90;;;;;;5142329;27;20034;-68
2023/06/29 03:20:04;;;;;;;0.35;0.35;;;19.20;99.90;;;;;;5141613;27;20464;-68
2023/06/29 03:22:31;;;;;;;1.40;0.75;;;19.20;99.90;;;;;;5138990;27;20047;-68
2023/06/29 03:24:56;;;;;;;5.78;0.70;;;19.20;99.90;;;;;;5147507;27;20490;-68
2023/06/29 03:27:22;;;;;;;0.35;0.35;;;19.20;99.90;;;;;;5117343;27;20046;-68
2023/06/29 03:29:52;;;;;;;0.00;0.00;;;19.20;99.90;;;;;;5144248;27;20035;-68
2023/06/29 03:32:18;;;;;;;0.65;0.40;;;19.20;99.90;;;;;;5138311;27;20044;-68
2023/06/29 03:34:43;;;;;;;0.20;0.20;;;19.10;99.90;;;;;;5138242;27;20049;-68
2023/06/29 03:37:10;;;;;;;1.45;0.80;;;19.20;99.90;;;;;;5139393;27;20065;-68
2023/06/29 03:39:35;;;;;;;0.38;0.38;;;19.20;99.90;;;;;;5145589;27;20083;-68
2023/06/29 03:42:01;;;;;;;1.10;0.82;;;19.20;99.90;;;;;;5127430;27;20428;-68
2023/06/29 03:44:26;;;;;;;0.17;0.17;;;19.10;99.90;;;;;;5128294;27;20039;-68
2023/06/29 03:46:52;;;;;;;0.52;0.52;;;19.10;99.90;;;;;;5134898;27;20074;-68
2023/06/29 03:49:18;;;;;;;0.95;0.85;;;19.20;99.90;;;;;;5141318;27;20498;-68
2023/06/29 03:51:43;;;;;;;4.70;1.83;;;19.20;99.90;;;;;;5146950;27;20057;-68
2023/06/29 03:54:09;;;;;;;0.50;0.50;;;19.20;99.90;;;;;;5133374;27;20486;-68
2023/06/29 03:56:34;;;;;;;0.15;0.15;;;19.20;99.90;;;;;;5138694;27;20050;-67
2023/06/29 03:59:00;;;;;;;0.28;0.20;;;19.20;99.90;;;;;;5136157;27;20057;-68
2023/06/29 04:01:26;;;;;;;0.17;0.17;;;19.20;99.90;;;;;;5141614;27;20046;-68
2023/06/29 04:03:51;;;;;;;0.43;0.30;;;19.20;99.90;;;;;;5138304;27;20047;-67
2023/06/29 04:06:17;;;;;;;0.60;0.60;;;19.20;99.90;;;;;;5138477;27;20080;-68
2023/06/29 04:08:42;;;;;;;0.55;0.45;;;19.20;99.90;;;;;;5136435;27;20734;-68
2023/06/29 04:11:09;;;;;;;1.23;0.77;;;19.20;99.90;;;;;;5141529;27;20426;-67
2023/06/29 04:13:35;;;;;;;0.30;0.30;;;19.20;99.90;;;;;;5140893;27;20440;-68
2023/06/29 04:16:01;;;;;;;1.55;0.95;;;19.20;99.90;;;;;;5137015;27;20042;-67
2023/06/29 04:18:26;;;;;;;2.08;1.05;;;19.20;99.90;;;;;;5141742;27;20486;-67
2023/06/29 04:20:54;;;;;;;0.52;0.40;;;19.20;99.90;;;;;;5134548;27;20047;-67
2023/06/29 04:23:19;;;;;;;2.30;0.55;;;19.20;99.90;;;;;;5141130;27;20605;-67
2023/06/29 04:25:45;;;;;;;1.15;1.05;;;19.20;99.90;;;;;;5141898;27;20039;-68
2023/06/29 04:28:14;;;;;;;0.38;0.38;;;19.20;99.90;;;;;;5141042;27;20039;-67
2023/06/29 04:30:43;;;;;;;1.48;1.35;;;19.20;99.90;;;;;;5143554;27;20074;-67
2023/06/29 04:33:10;;;;;;;0.45;0.45;;;19.20;99.90;;;;;;5142524;27;20126;-68
2023/06/29 04:35:42;;;;;;;0.10;0.10;;;19.20;99.90;;;;;;5154260;27;20117;-67
2023/06/29 04:38:09;;;;;;;0.30;0.30;;;19.20;99.90;;;;;;5147503;27;20031;-67
2023/06/29 04:40:35;;;;;;;1.27;0.73;;;19.20;99.90;;;;;;5140750;27;20035;-67
2023/06/29 04:43:02;;;;;;;8.30;2.08;;;19.20;99.90;;;;;;5124104;27;20043;-67
2023/06/29 04:45:28;;;;;;;0.98;0.75;;;19.20;99.90;;;;;;5139516;27;20497;-67
2023/06/29 04:47:56;;;;;;;1.00;0.90;;;19.10;99.90;;;;;;5149982;27;20043;-67
2023/06/29 04:50:25;;;;;;;1.85;1.75;;;19.20;99.90;;;;;;5138451;27;20051;-67
2023/06/29 04:53:19;;;;;;;0.85;0.85;;;19.10;99.90;;;;;;5144842;27;20117;-67
2023/06/29 04:55:43;;;;;;;0.33;0.33;;;19.10;99.90;;;;;;5139680;27;20053;-67
2023/06/29 04:58:09;;;;;;;1.00;0.95;;;19.10;99.90;;;;;;5140579;27;20087;-67
2023/06/29 05:00:34;;;;;;;0.75;0.75;;;19.10;99.90;;;;;;5138411;27;20043;-67
2023/06/29 05:03:00;;;;;;;1.33;1.17;;;19.10;99.90;;;;;;5150206;27;20395;-67
2023/06/29 05:05:26;;;;;;;0.55;0.55;;;19.10;99.90;;;;;;5142130;27;20036;-67
2023/06/29 05:07:51;;;;;;;1.25;1.10;;;19.10;99.90;;;;;;5144736;27;20035;-67
2023/06/29 05:10:17;;;;;;;0.30;0.30;;;19.10;99.90;;;;;;5147430;27;20090;-67
2023/06/29 05:12:43;;;;;;;1.80;1.35;;;19.10;99.90;;;;;;5138770;27;20405;-67
2023/06/29 05:15:09;;;;;;;0.98;0.98;;;19.10;99.90;;;;;;5131630;27;20030;-67
2023/06/29 05:17:34;;;;;;;0.45;0.45;;;19.10;99.90;;;;;;5143488;27;20039;-67
2023/06/29 05:20:00;;;;;;;0.60;0.60;;;19.10;99.90;;;;;;5144664;27;20046;-67
2023/06/29 05:22:25;;;;;;;1.33;0.90;;;19.10;99.90;;;;;;5144800;27;20465;-67
2023/06/29 05:24:51;;;;;;;1.15;0.43;;;19.10;99.90;;;;;;5151433;27;20165;-67
2023/06/29 05:27:17;;;;;;;0.50;0.50;;;19.10;99.90;;;;;;5141152;27;20394;-67
2023/06/29 05:29:42;;;;;;;0.98;0.88;;;19.10;99.90;;;;;;5123744;27;20047;-67
2023/06/29 05:32:08;;;;;;;0.95;0.63;;;19.10;99.90;;;;;;5142050;27;20047;-67
2023/06/29 05:34:35;;;;;;;2.28;1.75;;;19.10;99.90;;;;;;5146613;27;20054;-67
2023/06/29 05:37:01;;;;;;;0.75;0.75;;;19.10;99.90;;;;;;5136501;27;20099;-67
2023/06/29 05:39:27;;;;;;;0.98;0.80;;;19.10;99.90;;;;;;5148341;27;20038;-67
2023/06/29 05:41:53;;;;;;;0.40;0.38;;;19.10;99.90;;;;;;5150482;27;20046;-67
2023/06/29 05:44:18;;;;;;;1.20;1.13;;;19.10;99.90;;;;;;5119587;27;20047;-67
2023/06/29 05:46:44;;;;;;;0.52;0.52;;;19.10;99.90;;;;;;5126226;27;20164;-67
2023/06/29 05:49:09;;;;;;;0.40;0.25;;;19.10;99.90;;;;;;5144000;27;20079;-68
2023/06/29 05:51:37;;;;;;;2.28;1.02;;;19.20;99.90;;;;;;5144454;27;20133;-67
2023/06/29 05:54:04;;;;;;;0.98;0.43;;;19.20;99.90;;;;;;5151069;27;20040;-67
2023/06/29 05:56:30;;;;;;;0.43;0.43;;;19.20;99.90;;;;;;5145701;27;20035;-67
2023/06/29 05:58:56;;;;;;;0.95;0.28;;;19.20;99.90;;;;;;5142919;27;20046;-67
2023/06/29 06:01:22;;;;;;;0.85;0.85;;;19.20;99.90;;;;;;5141239;27;20030;-67
2023/06/29 06:03:47;;;;;;;0.45;0.45;;;19.20;99.90;;;;;;5143231;27;20045;-67
2023/06/29 06:06:13;;;;;;;1.75;1.02;;;19.30;99.90;;;;;;5141314;27;20038;-67
2023/06/29 06:08:38;;;;;;;0.50;0.50;;;19.30;99.90;;;;;;5140642;27;20047;-67
2023/06/29 06:11:04;;;;;;;17.83;0.45;;;19.30;99.90;;;;;;5140032;27;20073;-67
2023/06/29 06:13:30;;;;;;;3.50;1.10;;;19.30;99.90;;;;;;5141393;27;20103;-67
2023/06/29 06:15:55;;;;;;;0.38;0.38;;;19.30;99.90;;;;;;5138334;27;20103;-67
2023/06/29 06:18:21;;;;;;;1.95;0.93;;;19.40;99.90;;;;;;5144843;27;20053;-67
2023/06/29 06:20:47;;;;;;;0.20;0.20;;;19.40;99.90;;;;;;5141976;27;20114;-67
2023/06/29 06:23:13;;;;;;;0.22;0.22;;;19.50;99.90;;;;;;5133861;27;20401;-67
2023/06/29 06:25:38;;;;;;;0.15;0.10;;;19.50;99.90;;;;;;5140871;27;20741;-67
2023/06/29 06:28:04;;;;;;;1.40;0.70;;;19.40;99.90;;;;;;5140853;27;20067;-67
2023/06/29 06:30:30;;;;;;;1.17;0.77;;;19.40;99.90;;;;;;5140891;27;20106;-67
2023/06/29 06:32:55;;;;;;;1.75;1.65;;;19.50;99.90;;;;;;5146090;27;20054;-67
2023/06/29 06:35:21;;;;;;;0.45;0.45;;;19.50;99.90;;;;;;5145130;27;20049;-67
2023/06/29 06:37:47;;;;;;;0.00;0.00;;;19.50;99.90;;;;;;5145645;27;20042;-67
2023/06/29 06:40:15;;;;;;;0.00;0.00;;;19.50;99.90;;;;;;5137228;27;20118;-67
2023/06/29 06:42:41;;;;;;;0.05;0.05;;;19.50;99.90;;;;;;5142647;27;20503;-68
2023/06/29 06:45:07;;;;;;;0.13;0.13;;;19.50;99.90;;;;;;5148625;27;20047;-67
2023/06/29 06:47:35;;;;;;;0.15;0.15;;;19.60;99.90;;;;;;5146141;27;20043;-67
2023/06/29 06:50:02;;;;;;;0.93;0.85;;;19.60;99.90;;;;;;5150269;27;20042;-67
2023/06/29 06:52:27;;;;;;;3.60;0.63;;;19.60;99.90;;;;;;5138437;27;20522;-68
2023/06/29 06:54:54;;;;;;;0.20;0.20;;;19.60;99.90;;;;;;5145719;27;20049;-67
2023/06/29 06:57:20;;;;;;;0.03;0.03;;;19.60;99.90;;;;;;5148326;27;20064;-67
2023/06/29 06:59:46;;;;;;;0.35;0.35;;;19.60;99.90;;;;;;5117128;27;20049;-68
2023/06/29 07:02:12;;;;;;;0.30;0.30;;;19.60;99.90;;;;;;5149055;27;20034;-67
2023/06/29 07:04:38;;;;;;;1.08;0.80;;;19.60;99.90;;;;;;5138003;27;20043;-68
2023/06/29 07:07:04;;;;;;;0.22;0.17;;;19.60;99.90;;;;;;5144482;27;20398;-67
2023/06/29 07:09:30;;;;;;;0.20;0.20;;;19.60;99.90;;;;;;5142426;27;20043;-67
2023/06/29 07:11:56;;;;;;;0.70;0.65;;;19.70;99.90;;;;;;5141030;27;20062;-68
2023/06/29 07:14:21;;;;;;;1.08;0.50;;;19.70;99.90;;;;;;5138215;27;20419;-68
2023/06/29 07:16:48;;;;;;;1.05;1.00;;;19.70;99.90;;;;;;5151133;27;20118;-68
2023/06/29 07:19:14;;;;;;;0.77;0.60;;;19.70;99.90;;;;;;5141337;27;20045;-68
2023/06/29 07:21:40;;;;;;;0.57;0.57;;;19.70;99.90;;;;;;5144782;27;20047;-68
2023/06/29 07:24:07;;;;;;;0.17;0.17;;;19.80;99.90;;;;;;5124466;27;20033;-68
2023/06/29 07:26:32;;;;;;;1.15;0.75;;;19.80;99.90;;;;;;5117663;27;20051;-68
2023/06/29 07:28:58;;;;;;;3.10;0.98;;;19.80;99.90;;;;;;5144314;27;20031;-67
2023/06/29 07:31:25;;;;;;;0.68;0.35;;;19.80;99.90;;;;;;5121843;27;20147;-68
2023/06/29 07:33:54;;;;;;;3.75;1.75;;;19.80;99.90;;;;;;5141383;27;20055;-68
2023/06/29 07:36:21;;;;;;;7.38;1.63;;;19.80;99.90;;;;;;5140504;27;20070;-67
2023/06/29 07:38:47;;;;;;;2.58;0.90;;;19.80;99.90;;;;;;5143511;27;20053;-68
2023/06/29 07:41:13;;;;;;;0.52;0.40;;;19.90;99.90;;;;;;5136256;27;20042;-68
2023/06/29 07:43:55;;;;;;;0.20;0.20;;;19.90;99.90;;;;;;5136869;27;20070;-68
2023/06/29 07:46:21;;;;;;;0.70;0.70;;;19.80;99.90;;;;;;5137130;27;20035;-68
2023/06/29 07:48:48;;;;;;;0.20;0.20;;;19.80;99.90;;;;;;5140857;27;20051;-68
2023/06/29 07:51:14;;;;;;;1.35;1.23;;;19.80;99.90;;;;;;5138981;27;20039;-68
2023/06/29 07:53:41;;;;;;;0.70;0.70;;;19.80;99.90;;;;;;5140182;27;20402;-68
2023/06/29 07:56:07;;;;;;;0.65;0.38;;;19.80;99.90;;;;;;5140344;27;20070;-68
2023/06/29 07:58:33;;;;;;;1.23;1.13;;;19.70;99.90;;;;;;5134499;27;20111;-68
2023/06/29 08:00:58;;;;;;;2.90;0.95;;;19.70;99.90;;;;;;5137680;27;20043;-68
2023/06/29 08:03:24;;;;;;;5.53;2.38;;;19.70;99.90;;;;;;5139541;27;20039;-68
2023/06/29 08:05:52;;;;;;;1.08;1.02;;;19.70;99.90;;;;;;5144845;27;20461;-68
2023/06/29 08:08:18;;;;;;;0.80;0.80;;;19.70;99.90;;;;;;5143724;27;20398;-68
2023/06/29 08:10:43;;;;;;;1.02;0.93;;;19.70;99.90;;;;;;5143573;27;20143;-68
2023/06/29 08:13:09;;;;;;;0.90;0.90;;;19.70;99.90;;;;;;5137992;27;20518;-68
2023/06/29 08:15:34;;;;;;;0.50;0.50;;;19.70;99.90;;;;;;5144029;27;20035;-68
2023/06/29 08:18:00;;;;;;;0.10;0.10;;;19.70;99.90;;;;;;5149964;27;20074;-68
2023/06/29 08:20:26;;;;;;;1.17;1.17;;;19.70;99.90;;;;;;5138860;27;20039;-68
2023/06/29 08:22:52;;;;;;;0.30;0.30;;;19.70;99.90;;;;;;5121061;27;20520;-68
2023/06/29 08:25:21;;;;;;;1.15;1.00;;;19.70;99.90;;;;;;5153385;27;20049;-67
2023/06/29 08:27:46;;;;;;;0.38;0.17;;;19.70;99.90;;;;;;5139275;27;20055;-68
2023/06/29 08:30:12;;;;;;;0.63;0.63;;;19.70;99.90;;;;;;5143571;27;20062;-68
2023/06/29 08:32:38;;;;;;;3.00;0.93;;;19.70;99.90;;;;;;5147330;27;20121;-68
2023/06/29 08:35:04;;;;;;;0.47;0.47;;;19.70;99.90;;;;;;5125570;27;20050;-68
2023/06/29 08:37:30;;;;;;;0.68;0.43;;;19.70;99.90;;;;;;5145328;27;20043;-68
2023/06/29 08:39:56;;;;;;;0.60;0.60;;;19.60;99.90;;;;;;5149176;27;20035;-68
2023/06/29 08:42:23;;;;;;;2.25;1.42;;;19.50;99.90;;;;;;5142790;27;20062;-68
2023/06/29 08:44:49;;;;;;;0.68;0.68;;;19.40;99.90;;;;;;5145642;27;20085;-68
2023/06/29 08:47:16;;;;;;;2.85;1.30;;;19.30;99.90;;;;;;5148425;27;20455;-69
2023/06/29 08:49:42;;;;;;;2.50;1.25;;;19.30;99.90;;;;;;5151373;27;20050;-68
2023/06/29 08:52:15;;;;;;;1.13;1.13;;;19.30;99.90;;;;;;5145818;27;20054;-69
2023/06/29 08:54:41;;;;;;;1.48;1.38;;;19.30;99.90;;;;;;5145775;27;20256;-69
2023/06/29 08:57:07;;;;;;;1.85;0.63;;;19.30;99.90;;;;;;5120983;27;20031;-69
2023/06/29 08:59:33;;;;;;;0.80;0.80;;;19.30;99.90;;;;;;5131689;27;20054;-69
2023/06/29 09:01:59;;;;;;;0.10;0.10;;;19.30;99.90;;;;;;5141936;27;20512;-69
2023/06/29 09:04:25;;;;;;;1.13;1.08;;;19.30;99.90;;;;;;5139314;27;20114;-69
2023/06/29 09:06:55;;;;;;;1.58;1.50;;;19.30;99.90;;;;;;5144206;27;20192;-69
2023/06/29 09:09:21;;;;;;;0.60;0.57;;;19.30;99.90;;;;;;5143884;27;20039;-69
2023/06/29 09:11:47;;;;;;;1.40;1.25;;;19.30;99.90;;;;;;5141478;27;20145;-69
2023/06/29 09:14:13;;;;;;;1.30;1.20;;;19.30;99.90;;;;;;5150576;27;20070;-69
2023/06/29 09:16:57;;;;;;;1.25;1.13;;;19.30;99.90;;;;;;5138892;27;20082;-69
2023/06/29 09:19:24;;;;;;;0.98;0.63;;;19.30;99.90;;;;;;5142549;27;20046;-68
2023/06/29 09:21:50;;;;;;;1.75;1.02;;;19.30;99.90;;;;;;5151896;27;20394;-68
2023/06/29 09:24:19;;;;;;;1.25;0.88;;;19.40;99.90;;;;;;5139980;27;20502;-69
2023/06/29 09:26:49;;;;;;;3.78;2.88;;;19.40;99.90;;;;;;5122092;27;20081;-68
2023/06/29 09:29:16;;;;;;;0.85;0.85;;;19.40;99.90;;;;;;5142686;27;20042;-68
2023/06/29 09:31:54;;;;;;;0.45;0.45;;;19.50;99.90;;;;;;5141371;27;20485;-68
2023/06/29 09:34:21;;;;;;;0.20;0.20;;;19.40;99.90;;;;;;5135980;27;20487;-68
2023/06/29 09:36:48;;;;;;;0.70;0.70;;;19.50;99.90;;;;;;5146403;27;20035;-68
2023/06/29 09:39:14;;;;;;;0.65;0.65;;;19.50;99.90;;;;;;5151491;27;20051;-68
2023/06/29 09:41:48;;;;;;;0.82;0.80;;;19.50;99.90;;;;;;5142482;27;20035;-69
2023/06/29 09:44:19;;;;;;;;;;;19.60;99.90;;;;;;5144271;27;20398;-69
2023/06/29 09:46:46;;;;;;;6.15;1.08;;;19.70;99.90;;;;;;5143207;27;19923;-69
2023/06/29 09:49:12;;;;;;;4.30;1.75;;;19.80;99.90;;;;;;5148364;27;20053;-69
2023/06/29 09:51:38;;;;;;;7.38;0.73;;;19.80;99.90;;;;;;5142434;27;20031;-69
2023/06/29 09:54:04;;;;;;;1.75;1.27;;;19.90;99.90;;;;;;5142258;27;20050;-69
2023/06/29 09:56:33;;;;;;;0.98;0.98;;;20.00;99.90;;;;;;5128273;27;20096;-69
2023/06/29 09:59:01;;;;;;;9.18;2.70;;;20.00;99.90;;;;;;5142650;27;20046;-69
2023/06/29 10:01:29;;;;;;;2.25;1.75;;;20.10;99.90;;;;;;5138987;27;20383;-69
2023/06/29 10:03:56;;;;;;;1.08;1.08;;;20.00;99.90;;;;;;5143347;27;20552;-69
2023/06/29 10:06:54;;;;;;;2.00;0.98;;;20.00;99.90;;;;;;5140775;27;20043;-68
2023/06/29 10:09:21;;;;;;;7.57;1.45;;;20.00;99.90;;;;;;5133103;27;20089;-69
2023/06/29 10:11:53;;;;;;;1.45;1.27;;;20.00;99.90;;;;;;5143462;27;20495;-69
2023/06/29 10:14:20;;;;;;;2.05;1.88;;;20.00;99.90;;;;;;5138232;27;20039;-69
2023/06/29 10:16:50;;;;;;;2.25;1.52;;;19.90;99.90;;;;;;5143210;27;20371;-69
2023/06/29 10:19:19;;;;;;;4.95;2.55;;;19.90;99.90;;;;;;5142408;27;20043;-69
2023/06/29 10:21:47;;;;;;;1.23;0.90;;;20.00;99.90;;;;;;5132116;27;20051;-69
2023/06/29 10:24:17;;;;;;;0.50;0.50;;;20.00;99.90;;;;;;5134435;27;20054;-69
2023/06/29 10:26:43;;;;;;;2.25;1.55;;;20.00;99.90;;;;;;5142535;27;20099;-68
2023/06/29 10:29:09;;;;;;;1.83;1.42;;;20.10;99.90;;;;;;5140077;27;20038;-70
2023/06/29 10:31:35;;;;;;;3.72;1.95;;;20.10;99.90;;;;;;5135542;27;20042;-70
2023/06/29 10:34:05;;;;;;;1.40;1.30;;;20.10;99.90;;;;;;5141961;27;20043;-69
2023/06/29 10:36:49;;;;;;;0.85;0.85;;;20.00;99.90;;;;;;5142788;27;20035;-69
2023/06/29 10:39:46;;;;;;;0.52;0.52;;;20.10;99.90;;;;;;5145786;27;20051;-70
2023/06/29 10:42:32;;;;;;;3.85;2.30;;;20.10;99.90;;;;;;5142871;27;20540;-70
2023/06/29 10:44:58;;;;;;;2.58;1.73;;;20.20;99.90;;;;;;5120072;27;20061;-70
2023/06/29 10:47:28;;;;;;;2.72;1.60;;;20.20;99.90;;;;;;5125262;27;20043;-70
2023/06/29 10:50:08;;;;;;;0.55;0.55;;;20.20;99.90;;;;;;5143616;27;20541;-69
2023/06/29 10:52:34;;;;;;;1.83;1.73;;;20.30;99.90;;;;;;5132595;27;20611;-69
2023/06/29 10:55:14;;;;;;;2.95;2.08;;;20.40;99.90;;;;;;5124411;27;20035;-70
2023/06/29 10:57:41;;;;;;;1.42;0.88;;;20.60;99.90;;;;;;5137258;27;20054;-69
2023/06/29 11:00:07;;;;;;;1.52;1.45;;;20.60;99.90;;;;;;5136030;27;20066;-69
2023/06/29 11:02:34;;;;;;;1.40;1.25;;;20.70;99.90;;;;;;5114797;27;20042;-70
2023/06/29 11:05:00;;;;;;;8.45;2.70;;;20.80;99.90;;;;;;5115425;27;20043;-69
2023/06/29 11:07:27;;;;;;;1.58;1.48;;;20.80;99.90;;;;;;5139138;27;20049;-69
2023/06/29 11:10:03;;;;;;;3.22;1.27;;;20.80;99.90;;;;;;5142538;27;20038;-69
2023/06/29 11:12:28;;;;;;;1.35;1.17;;;20.90;99.90;;;;;;5121710;27;20043;-68
2023/06/29 11:14:55;;;;;;;1.35;1.23;;;20.80;99.90;;;;;;5139262;27;20080;-69
2023/06/29 11:17:22;;;;;;;1.83;1.05;;;20.90;99.90;;;;;;5133550;27;20397;-69
2023/06/29 11:19:49;;;;;;;1.27;1.17;;;20.90;99.90;;;;;;5142339;27;20042;-69
2023/06/29 11:22:18;;;;;;;0.80;0.80;;;20.90;99.90;;;;;;5141305;27;20091;-69
2023/06/29 11:24:44;;;;;;;1.38;1.27;;;21.00;99.90;;;;;;5140883;27;20039;-69
2023/06/29 11:27:10;;;;;;;1.52;0.65;;;21.00;99.90;;;;;;5140733;27;20088;-69
2023/06/29 11:29:36;;;;;;;0.35;0.35;;;21.40;99.90;;;;;;5135881;27;20067;-69
2023/06/29 11:32:02;;;;;;;2.30;1.77;;;21.50;99.90;;;;;;5141213;27;20082;-69
2023/06/29 11:34:28;;;;;;;1.38;0.77;;;21.60;99.90;;;;;;5149242;27;20080;-70
2023/06/29 11:36:55;;;;;;;2.28;1.95;;;21.60;99.90;;;;;;5143573;27;20458;-69
2023/06/29 11:39:20;;;;;;;0.73;0.73;;;21.60;99.90;;;;;;5143638;27;20043;-69
2023/06/29 11:41:47;;;;;;;1.23;0.85;;;21.70;99.90;;;;;;5137493;27;20038;-69
2023/06/29 11:44:13;;;;;;;2.22;1.60;;;21.70;99.90;;;;;;5150465;27;20442;-69
2023/06/29 11:46:39;;;;;;;4.45;1.88;;;21.70;99.90;;;;;;5139755;27;20125;-69
2023/06/29 11:49:06;;;;;;;2.10;1.55;;;21.60;99.90;;;;;;5145299;27;20046;-69
2023/06/29 11:51:33;;;;;;;2.40;2.20;;;21.60;99.90;;;;;;5148881;27;20035;-70
2023/06/29 11:53:59;;;;;;;7.45;1.63;;;21.60;99.90;;;;;;5135677;27;20027;-69
2023/06/29 11:56:35;;;;;;;0.55;0.55;;;21.70;99.90;;;;;;5133788;27;20440;-70
2023/06/29 11:59:06;;;;;;;1.40;1.17;;;21.70;99.90;;;;;;5143341;27;20951;-71
2023/06/29 12:01:32;;;;;;;4.50;1.88;;;21.70;99.90;;;;;;5134549;27;20765;-70
2023/06/29 12:03:57;;;;;;;1.60;1.50;;;21.90;99.90;;;;;;5139643;27;20031;-69
2023/06/29 12:06:23;;;;;;;3.38;2.25;;;21.90;99.90;;;;;;5141107;27;20118;-69
2023/06/29 12:08:52;;;;;;;5.10;2.50;;;22.00;99.90;;;;;;5142371;27;20069;-70
2023/06/29 12:11:20;;;;;;;0.52;0.52;;;22.00;99.90;;;;;;5135650;27;20522;-70
2023/06/29 12:13:48;;;;;;;1.20;1.15;;;22.20;99.90;;;;;;5140869;27;20121;-70
2023/06/29 12:16:16;;;;;;;2.83;1.65;;;22.30;99.90;;;;;;5137913;27;20035;-70
2023/06/29 12:18:42;;;;;;;4.13;1.13;;;22.40;99.90;;;;;;5132754;27;20047;-70
2023/06/29 12:21:07;;;;;;;6.38;1.83;;;22.50;99.90;;;;;;5142251;27;20039;-70
2023/06/29 12:23:33;;;;;;;9.43;2.10;;;22.40;99.90;;;;;;5148894;27;20044;-70
2023/06/29 12:25:59;;;;;;;2.22;1.95;;;22.40;99.90;;;;;;5136961;27;20084;-70
2023/06/29 12:28:25;;;;;;;2.65;2.45;;;22.30;99.90;;;;;;5140139;27;20039;-69
2023/06/29 12:30:51;;;;;;;1.90;1.50;;;22.30;99.90;;;;;;5139575;27;20773;-70
2023/06/29 12:33:16;;;;;;;1.50;1.40;;;22.20;99.90;;;;;;5139310;27;20654;-70
2023/06/29 12:35:42;;;;;;;16.08;1.23;;;22.10;99.90;;;;;;5139315;27;20122;-70
2023/06/29 12:38:08;;;;;;;1.35;1.17;;;22.00;99.90;;;;;;5146648;27;20074;-70
2023/06/29 12:40:34;;;;;;;2.53;1.52;;;21.90;99.90;;;;;;5141983;27;20038;-70
2023/06/29 12:43:03;;;;;;;3.38;1.17;;;21.80;99.90;;;;;;5114900;27;20134;-70
2023/06/29 12:45:29;;;;;;;0.10;0.10;;;21.70;99.90;;;;;;5138831;27;20119;-70
2023/06/29 12:47:54;;;;;;;2.95;1.27;;;21.60;99.90;;;;;;5133572;27;20235;-69